Time;durP1;ratioP1;P1;durP2;ratioP2;P2;SDS_P1;SDS_P2;PMS_P1;PMS_P2;Temp;Humidity;BMP_temperature;BMP_pressure;BME280_temperature;BME280_humidity;BME280_pressure;Samples;Min_cycle;Max_cycle;Signal;HPM_P1;HPM_P2
2023/10/29 00:02:10;;;;;;;8.67;4.30;;;;;;;;;;5005429;28;20214;-82
2023/10/29 00:04:39;;;;;;;7.20;3.47;;;;;;;;;;5011911;28;20176;-82
2023/10/29 00:07:05;;;;;;;5.80;2.53;;;;;;;;;;5025098;28;20195;-82
2023/10/29 00:09:35;;;;;;;6.03;3.17;;;;;;;;;;4992102;28;20238;-82
2023/10/29 00:12:03;;;;;;;10.17;4.80;;;;;;;;;;5014015;28;20186;-82
2023/10/29 00:14:30;;;;;;;12.90;5.10;;;;;;;;;;5011713;28;20198;-82
2023/10/29 00:16:57;;;;;;;7.27;3.60;;;;;;;;;;5013130;28;20270;-82
2023/10/29 00:19:24;;;;;;;5.67;2.53;;;;;;;;;;5008659;28;20274;-82
2023/10/29 00:21:52;;;;;;;11.00;4.93;;;;;;;;;;5008872;28;20190;-82
2023/10/29 00:24:22;;;;;;;7.43;3.20;;;;;;;;;;5016791;28;20183;-82
2023/10/29 00:26:50;;;;;;;5.17;2.47;;;;;;;;;;5014842;28;20646;-82
2023/10/29 00:29:17;;;;;;;7.40;3.77;;;;;;;;;;4996369;28;20194;-82
2023/10/29 00:31:46;;;;;;;8.73;3.33;;;;;;;;;;5038642;28;20674;-82
2023/10/29 00:34:14;;;;;;;7.73;3.20;;;;;;;;;;5019048;28;20192;-82
2023/10/29 00:36:41;;;;;;;5.07;2.60;;;;;;;;;;5011577;28;20187;-82
2023/10/29 00:39:08;;;;;;;5.50;2.83;;;;;;;;;;5010200;28;20203;-82
2023/10/29 00:41:35;;;;;;;7.03;2.80;;;;;;;;;;5011672;28;20191;-82
2023/10/29 00:44:01;;;;;;;4.33;2.53;;;;;;;;;;5018800;28;20262;-81
2023/10/29 00:46:27;;;;;;;6.57;3.10;;;;;;;;;;5015113;28;20188;-82
2023/10/29 00:48:54;;;;;;;6.53;3.20;;;;;;;;;;5015111;28;20196;-82
2023/10/29 00:51:20;;;;;;;5.93;3.10;;;;;;;;;;5008620;28;20200;-82
2023/10/29 00:53:46;;;;;;;6.27;3.10;;;;;;;;;;5010601;28;20210;-82
2023/10/29 00:56:17;;;;;;;4.07;2.20;;;;;;;;;;5011204;28;20199;-82
2023/10/29 00:58:43;;;;;;;8.87;4.07;;;;;;;;;;5008183;28;20219;-82
2023/10/29 01:01:10;;;;;;;7.77;3.93;;;;;;;;;;4995336;28;20203;-82
2023/10/29 01:03:36;;;;;;;7.80;3.70;;;;;;;;;;5014437;28;20179;-83
2023/10/29 01:06:02;;;;;;;4.43;2.13;;;;;;;;;;5004254;28;20183;-82
2023/10/29 01:08:28;;;;;;;3.27;2.10;;;;;;;;;;4994683;28;20283;-82
2023/10/29 01:10:55;;;;;;;4.93;2.70;;;;;;;;;;4997460;28;20211;-82
2023/10/29 01:13:21;;;;;;;2.80;1.67;;;;;;;;;;4992474;28;20188;-82
2023/10/29 01:15:47;;;;;;;2.77;1.70;;;;;;;;;;5003156;28;20271;-82
2023/10/29 01:18:13;;;;;;;2.80;2.00;;;;;;;;;;4992321;28;20194;-82
2023/10/29 01:20:39;;;;;;;4.77;2.10;;;;;;;;;;5009045;28;20212;-82
2023/10/29 01:23:05;;;;;;;4.50;2.03;;;;;;;;;;4988451;28;20199;-82
2023/10/29 01:25:32;;;;;;;3.37;1.93;;;;;;;;;;4995859;28;20643;-82
2023/10/29 01:27:59;;;;;;;3.07;1.87;;;;;;;;;;5007414;28;20187;-82
2023/10/29 01:30:26;;;;;;;6.00;2.80;;;;;;;;;;4988169;28;20574;-82
2023/10/29 01:32:52;;;;;;;3.57;2.40;;;;;;;;;;4989641;28;20198;-82
2023/10/29 01:35:18;;;;;;;5.50;3.30;;;;;;;;;;5009037;28;20230;-82
2023/10/29 01:37:44;;;;;;;5.73;2.40;;;;;;;;;;4979369;28;20652;-82
2023/10/29 01:40:13;;;;;;;6.20;2.40;;;;;;;;;;4999573;28;20249;-82
2023/10/29 01:42:39;;;;;;;6.03;2.80;;;;;;;;;;4996545;28;20236;-82
2023/10/29 01:45:05;;;;;;;4.57;2.00;;;;;;;;;;5009041;28;20194;-82
2023/10/29 01:47:31;;;;;;;5.27;2.37;;;;;;;;;;4994042;28;20183;-82
2023/10/29 01:49:57;;;;;;;3.43;1.77;;;;;;;;;;5011903;28;20365;-82
2023/10/29 01:52:24;;;;;;;3.23;1.90;;;;;;;;;;5039867;23;20697;-81
2023/10/29 01:54:50;;;;;;;2.27;1.50;;;;;;;;;;4998409;28;20190;-81
2023/10/29 01:57:17;;;;;;;2.70;1.67;;;;;;;;;;5038585;28;20190;-78
2023/10/29 01:59:43;;;;;;;4.13;2.20;;;;;;;;;;5008157;28;20214;-81
2023/10/29 02:02:09;;;;;;;4.23;2.33;;;;;;;;;;4990600;28;20218;-81
2023/10/29 02:04:35;;;;;;;3.43;2.20;;;;;;;;;;5029166;28;20240;-81
2023/10/29 02:07:02;;;;;;;3.43;2.00;;;;;;;;;;5029275;28;20183;-80
2023/10/29 02:09:28;;;;;;;6.27;2.50;;;;;;;;;;5023494;28;20249;-80
2023/10/29 02:11:54;;;;;;;4.33;2.27;;;;;;;;;;5022783;28;20271;-79
2023/10/29 02:14:20;;;;;;;3.87;1.57;;;;;;;;;;5027949;28;20557;-80
2023/10/29 02:16:49;;;;;;;2.90;1.50;;;;;;;;;;5028900;28;20187;-79
2023/10/29 02:19:15;;;;;;;8.83;3.20;;;;;;;;;;5025805;28;20299;-80
2023/10/29 02:21:42;;;;;;;8.37;3.43;;;;;;;;;;5010460;28;20206;-81
2023/10/29 02:24:08;;;;;;;4.03;2.27;;;;;;;;;;5005657;28;20192;-81
2023/10/29 02:26:35;;;;;;;6.20;2.40;;;;;;;;;;4994748;28;20399;-81
2023/10/29 02:29:01;;;;;;;6.20;2.20;;;;;;;;;;5024723;28;20594;-81
2023/10/29 02:31:27;;;;;;;11.10;3.90;;;;;;;;;;5009965;28;20268;-81
2023/10/29 02:33:53;;;;;;;5.87;3.20;;;;;;;;;;5012800;28;20197;-80
2023/10/29 02:36:20;;;;;;;8.90;3.53;;;;;;;;;;5011998;28;20196;-79
2023/10/29 02:38:46;;;;;;;3.70;2.30;;;;;;;;;;5006892;28;20221;-80
2023/10/29 02:41:13;;;;;;;1.73;1.50;;;;;;;;;;5028407;28;20209;-81
2023/10/29 02:43:40;;;;;;;1.90;1.10;;;;;;;;;;5023433;28;20186;-81
2023/10/29 02:46:06;;;;;;;2.00;0.93;;;;;;;;;;5022307;28;20178;-81
2023/10/29 02:48:32;;;;;;;1.30;0.90;;;;;;;;;;5005842;28;20250;-81
2023/10/29 02:50:58;;;;;;;1.73;0.90;;;;;;;;;;5006249;28;20205;-81
2023/10/29 02:53:24;;;;;;;1.20;1.00;;;;;;;;;;5007637;28;20194;-81
2023/10/29 02:55:51;;;;;;;2.73;1.10;;;;;;;;;;5027667;28;20571;-80
2023/10/29 02:58:17;;;;;;;1.20;0.97;;;;;;;;;;5025970;28;20180;-80
2023/10/29 03:00:44;;;;;;;2.23;1.00;;;;;;;;;;5027811;28;20210;-81
2023/10/29 03:03:10;;;;;;;2.53;1.07;;;;;;;;;;4993777;28;20229;-81
2023/10/29 03:05:36;;;;;;;1.30;1.13;;;;;;;;;;5025000;28;20205;-81
2023/10/29 03:08:03;;;;;;;1.13;1.03;;;;;;;;;;4995183;28;20195;-81
2023/10/29 03:10:31;;;;;;;3.37;1.10;;;;;;;;;;5024956;28;20193;-81
2023/10/29 03:12:57;;;;;;;2.20;1.20;;;;;;;;;;5021457;28;20267;-81
2023/10/29 03:15:24;;;;;;;1.80;1.17;;;;;;;;;;5027653;28;20191;-80
2023/10/29 03:17:50;;;;;;;2.30;1.10;;;;;;;;;;5026067;28;20182;-80
2023/10/29 03:20:16;;;;;;;1.40;1.10;;;;;;;;;;5022573;28;20214;-81
2023/10/29 03:22:43;;;;;;;1.27;1.03;;;;;;;;;;5031656;28;20210;-81
2023/10/29 03:25:09;;;;;;;2.03;1.10;;;;;;;;;;5031492;28;20194;-81
2023/10/29 03:27:35;;;;;;;1.63;1.20;;;;;;;;;;5021062;28;20186;-81
2023/10/29 03:30:01;;;;;;;2.60;1.30;;;;;;;;;;5006246;28;20190;-81
2023/10/29 03:32:28;;;;;;;1.73;1.40;;;;;;;;;;5031771;28;20213;-81
2023/10/29 03:34:54;;;;;;;1.57;1.30;;;;;;;;;;5024878;28;20194;-80
2023/10/29 03:37:20;;;;;;;2.37;1.40;;;;;;;;;;5020804;28;20178;-80
2023/10/29 03:39:46;;;;;;;1.40;1.27;;;;;;;;;;5030360;28;20577;-81
2023/10/29 03:42:13;;;;;;;1.23;1.10;;;;;;;;;;5031740;28;20213;-81
2023/10/29 03:44:40;;;;;;;1.70;1.20;;;;;;;;;;5019798;28;20248;-81
2023/10/29 03:47:07;;;;;;;4.33;1.30;;;;;;;;;;5035460;28;20179;-80
2023/10/29 03:49:33;;;;;;;3.07;1.10;;;;;;;;;;5014314;28;20198;-80
2023/10/29 03:51:59;;;;;;;2.67;1.30;;;;;;;;;;5012687;28;20233;-80
2023/10/29 03:54:25;;;;;;;1.67;1.30;;;;;;;;;;4999028;28;20195;-80
2023/10/29 03:56:51;;;;;;;1.53;1.20;;;;;;;;;;5032496;28;20194;-80
2023/10/29 03:59:18;;;;;;;3.17;1.30;;;;;;;;;;5017888;28;20210;-80
2023/10/29 04:01:44;;;;;;;1.53;1.10;;;;;;;;;;5020185;28;20199;-81
2023/10/29 04:04:10;;;;;;;2.33;1.30;;;;;;;;;;5035674;28;20191;-80
2023/10/29 04:06:36;;;;;;;1.20;1.10;;;;;;;;;;5025783;28;20705;-81
2023/10/29 04:09:02;;;;;;;1.90;1.17;;;;;;;;;;5034881;28;20186;-80
2023/10/29 04:11:28;;;;;;;2.33;1.40;;;;;;;;;;5017048;28;20228;-81
2023/10/29 04:13:55;;;;;;;2.47;1.30;;;;;;;;;;4999372;28;20252;-81
2023/10/29 04:16:21;;;;;;;1.73;1.17;;;;;;;;;;5015722;28;20677;-80
2023/10/29 04:18:47;;;;;;;1.67;1.10;;;;;;;;;;4996598;28;20862;-81
2023/10/29 04:21:13;;;;;;;3.20;1.13;;;;;;;;;;5013683;28;20215;-80
2023/10/29 04:23:39;;;;;;;1.47;1.20;;;;;;;;;;5013273;28;20186;-81
2023/10/29 04:26:06;;;;;;;3.03;1.40;;;;;;;;;;5030186;28;20246;-81
2023/10/29 04:28:32;;;;;;;1.73;1.30;;;;;;;;;;4998399;28;20191;-81
2023/10/29 04:31:00;;;;;;;3.03;1.23;;;;;;;;;;5026636;28;20217;-81
2023/10/29 04:33:26;;;;;;;3.87;1.50;;;;;;;;;;5030862;28;20203;-81
2023/10/29 04:35:52;;;;;;;1.70;1.30;;;;;;;;;;5026757;28;20182;-81
2023/10/29 04:38:18;;;;;;;2.23;1.30;;;;;;;;;;5006997;28;20216;-81
2023/10/29 04:40:45;;;;;;;2.03;1.40;;;;;;;;;;5007857;28;20228;-81
2023/10/29 04:43:11;;;;;;;1.67;1.30;;;;;;;;;;5029382;28;20179;-81
2023/10/29 04:45:37;;;;;;;2.47;1.30;;;;;;;;;;5026031;28;20186;-81
2023/10/29 04:48:03;;;;;;;2.17;1.23;;;;;;;;;;5006308;28;20194;-81
2023/10/29 04:50:30;;;;;;;2.00;1.50;;;;;;;;;;5028407;28;20183;-81
2023/10/29 04:53:02;;;;;;;2.67;1.57;;;;;;;;;;5026639;28;20681;-81
2023/10/29 04:55:28;;;;;;;2.20;1.30;;;;;;;;;;5021828;28;20194;-81
2023/10/29 04:57:54;;;;;;;1.73;1.47;;;;;;;;;;5013703;28;20276;-81
2023/10/29 05:00:21;;;;;;;1.33;1.20;;;;;;;;;;5026846;28;20363;-81
2023/10/29 05:02:47;;;;;;;2.43;1.43;;;;;;;;;;5010239;28;20198;-81
2023/10/29 05:05:13;;;;;;;3.40;1.70;;;;;;;;;;5013849;28;20186;-80
2023/10/29 05:07:41;;;;;;;2.30;1.33;;;;;;;;;;5000825;28;20278;-81
2023/10/29 05:10:07;;;;;;;2.00;1.63;;;;;;;;;;5023588;28;20194;-81
2023/10/29 05:12:33;;;;;;;1.80;1.50;;;;;;;;;;5014224;28;20250;-80
2023/10/29 05:14:59;;;;;;;1.80;1.50;;;;;;;;;;5027681;28;20178;-81
2023/10/29 05:17:25;;;;;;;1.43;1.30;;;;;;;;;;5029561;28;20584;-81
2023/10/29 05:19:54;;;;;;;2.63;1.53;;;;;;;;;;5031321;28;20207;-81
2023/10/29 05:22:20;;;;;;;2.17;1.50;;;;;;;;;;5010244;28;20209;-81
2023/10/29 05:24:46;;;;;;;2.17;1.57;;;;;;;;;;5024962;28;20187;-79
2023/10/29 05:27:12;;;;;;;1.60;1.40;;;;;;;;;;5043316;28;20182;-80
2023/10/29 05:29:38;;;;;;;2.90;1.80;;;;;;;;;;5006450;28;20658;-81
2023/10/29 05:32:05;;;;;;;1.67;1.37;;;;;;;;;;5013230;28;20210;-80
2023/10/29 05:34:31;;;;;;;2.13;1.40;;;;;;;;;;5021909;28;20199;-81
2023/10/29 05:36:57;;;;;;;1.93;1.53;;;;;;;;;;5006627;28;20214;-81
2023/10/29 05:39:23;;;;;;;1.50;1.40;;;;;;;;;;5035124;28;20211;-81
2023/10/29 05:41:49;;;;;;;2.50;1.30;;;;;;;;;;5025645;28;20231;-79
2023/10/29 05:44:16;;;;;;;1.70;1.10;;;;;;;;;;5011641;28;20182;-80
2023/10/29 05:46:42;;;;;;;3.70;1.40;;;;;;;;;;5013764;28;20182;-81
2023/10/29 05:49:08;;;;;;;5.33;1.10;;;;;;;;;;5023736;28;20195;-81
2023/10/29 05:51:34;;;;;;;1.60;1.30;;;;;;;;;;5025841;28;20661;-81
2023/10/29 05:54:00;;;;;;;1.93;1.27;;;;;;;;;;5030917;28;20261;-79
2023/10/29 05:56:26;;;;;;;2.43;1.33;;;;;;;;;;5030554;28;20198;-81
2023/10/29 05:58:52;;;;;;;2.37;1.07;;;;;;;;;;5032375;28;20604;-81
2023/10/29 06:01:18;;;;;;;1.63;1.23;;;;;;;;;;5028723;28;20225;-81
2023/10/29 06:03:45;;;;;;;1.50;1.00;;;;;;;;;;5015176;28;20617;-81
2023/10/29 06:06:11;;;;;;;1.40;1.30;;;;;;;;;;4998142;28;20243;-80
2023/10/29 06:08:37;;;;;;;3.57;1.30;;;;;;;;;;5025886;28;20207;-81
2023/10/29 06:11:04;;;;;;;1.80;1.10;;;;;;;;;;5013733;28;20191;-81
2023/10/29 06:13:30;;;;;;;7.13;1.60;;;;;;;;;;5027878;28;20182;-81
2023/10/29 06:15:57;;;;;;;3.17;1.40;;;;;;;;;;5013172;28;20182;-81
2023/10/29 06:18:23;;;;;;;3.30;1.50;;;;;;;;;;5024013;28;20309;-81
2023/10/29 06:20:52;;;;;;;2.63;1.30;;;;;;;;;;5028889;28;20522;-81
2023/10/29 06:23:18;;;;;;;1.77;1.20;;;;;;;;;;5023149;28;20278;-81
2023/10/29 06:25:44;;;;;;;2.53;1.30;;;;;;;;;;5029146;28;20182;-82
2023/10/29 06:28:10;;;;;;;1.90;1.40;;;;;;;;;;5028717;28;20196;-81
2023/10/29 06:30:36;;;;;;;3.17;1.40;;;;;;;;;;5011279;28;20196;-80
2023/10/29 06:33:03;;;;;;;2.67;1.40;;;;;;;;;;5026476;28;20293;-81
2023/10/29 06:35:29;;;;;;;2.80;1.40;;;;;;;;;;5010483;28;20602;-80
2023/10/29 06:37:55;;;;;;;3.40;1.67;;;;;;;;;;5002637;28;20186;-81
2023/10/29 06:40:21;;;;;;;1.83;1.57;;;;;;;;;;5010197;28;20219;-81
2023/10/29 06:42:47;;;;;;;1.87;1.47;;;;;;;;;;5027506;28;20199;-82
2023/10/29 06:45:14;;;;;;;2.47;1.47;;;;;;;;;;5026509;28;20190;-82
2023/10/29 06:47:40;;;;;;;2.30;1.70;;;;;;;;;;5028202;28;20185;-80
2023/10/29 06:50:06;;;;;;;2.63;1.63;;;;;;;;;;5028984;28;20178;-81
2023/10/29 06:52:32;;;;;;;2.73;1.53;;;;;;;;;;5010823;28;20305;-81
2023/10/29 06:54:58;;;;;;;2.43;1.80;;;;;;;;;;5007682;28;20298;-81
2023/10/29 06:57:24;;;;;;;1.53;1.30;;;;;;;;;;4998730;28;20184;-81
2023/10/29 06:59:51;;;;;;;3.97;1.40;;;;;;;;;;5022418;28;20210;-81
2023/10/29 07:02:17;;;;;;;3.20;1.60;;;;;;;;;;5026236;28;20208;-82
2023/10/29 07:04:43;;;;;;;2.80;1.70;;;;;;;;;;5029158;28;20195;-81
2023/10/29 07:07:11;;;;;;;2.70;1.80;;;;;;;;;;5015058;28;20275;-82
2023/10/29 07:09:37;;;;;;;2.53;1.57;;;;;;;;;;5028412;28;20190;-85
2023/10/29 07:12:04;;;;;;;2.73;1.90;;;;;;;;;;5010340;28;20293;-82
2023/10/29 07:14:30;;;;;;;3.17;1.90;;;;;;;;;;5009532;28;20345;-83
2023/10/29 07:16:56;;;;;;;4.50;2.07;;;;;;;;;;5009125;28;20186;-81
2023/10/29 07:19:22;;;;;;;3.30;1.80;;;;;;;;;;5015584;28;20212;-80
2023/10/29 07:21:49;;;;;;;4.43;2.27;;;;;;;;;;5028589;28;20203;-79
2023/10/29 07:24:15;;;;;;;4.50;2.10;;;;;;;;;;5028703;28;20547;-80
2023/10/29 07:26:41;;;;;;;4.23;1.93;;;;;;;;;;5013455;28;20213;-81
2023/10/29 07:29:08;;;;;;;4.13;1.87;;;;;;;;;;5042014;28;20194;-80
2023/10/29 07:31:34;;;;;;;5.53;2.17;;;;;;;;;;5016198;28;20301;-76
2023/10/29 07:34:00;;;;;;;3.43;1.93;;;;;;;;;;5027049;28;20672;-84
2023/10/29 07:36:26;;;;;;;4.20;1.90;;;;;;;;;;5028731;28;20685;-85
2023/10/29 07:38:52;;;;;;;3.30;1.80;;;;;;;;;;5015177;28;20294;-81
2023/10/29 07:41:19;;;;;;;4.43;1.80;;;;;;;;;;5039369;28;20217;-84
2023/10/29 07:43:45;;;;;;;2.60;1.80;;;;;;;;;;5003427;28;20202;-82
2023/10/29 07:46:12;;;;;;;3.70;1.80;;;;;;;;;;5014959;28;20179;-83
2023/10/29 07:48:38;;;;;;;5.40;1.80;;;;;;;;;;5016854;28;20183;-82
2023/10/29 07:51:04;;;;;;;1.97;1.70;;;;;;;;;;5013162;28;20237;-80
2023/10/29 07:53:30;;;;;;;2.53;1.90;;;;;;;;;;5028717;28;20194;-86
2023/10/29 07:56:06;;;;;;;3.53;1.83;;;;;;;;;;5004491;28;20194;-86
2023/10/29 07:58:32;;;;;;;3.23;2.10;;;;;;;;;;5012856;28;20190;-87
2023/10/29 08:00:58;;;;;;;5.83;2.00;;;;;;;;;;4996654;28;20203;-86
2023/10/29 08:03:24;;;;;;;3.93;1.73;;;;;;;;;;5004601;28;20811;-84
2023/10/29 08:05:52;;;;;;;3.13;1.73;;;;;;;;;;5026551;28;20187;-84
2023/10/29 08:08:18;;;;;;;3.87;1.80;;;;;;;;;;5029643;28;20183;-83
2023/10/29 08:10:44;;;;;;;2.70;1.80;;;;;;;;;;5012595;28;20182;-80
2023/10/29 08:13:10;;;;;;;3.57;1.90;;;;;;;;;;5011928;28;20649;-80
2023/10/29 08:15:40;;;;;;;3.40;2.07;;;;;;;;;;5011653;28;20187;-80
2023/10/29 08:18:06;;;;;;;3.43;1.80;;;;;;;;;;5043424;28;20220;-80
2023/10/29 08:20:32;;;;;;;1.87;1.50;;;;;;;;;;5028328;28;20214;-80
2023/10/29 08:22:58;;;;;;;3.40;1.70;;;;;;;;;;5028428;28;20673;-80
2023/10/29 08:25:25;;;;;;;2.37;1.30;;;;;;;;;;5028092;28;20195;-80
2023/10/29 08:27:51;;;;;;;2.90;1.67;;;;;;;;;;5030139;28;20187;-80
2023/10/29 08:30:17;;;;;;;1.80;1.40;;;;;;;;;;5010865;28;20190;-80
2023/10/29 08:32:43;;;;;;;2.90;1.37;;;;;;;;;;5028449;28;20194;-80
2023/10/29 08:35:09;;;;;;;2.40;1.50;;;;;;;;;;5013157;28;20273;-80
2023/10/29 08:37:36;;;;;;;1.80;1.30;;;;;;;;;;5022125;28;20190;-80
2023/10/29 08:40:02;;;;;;;2.77;1.40;;;;;;;;;;5004473;28;20701;-79
2023/10/29 08:42:32;;;;;;;2.93;1.30;;;;;;;;;;5029845;28;20207;-79
2023/10/29 08:44:58;;;;;;;2.00;1.50;;;;;;;;;;5026855;28;20177;-80
2023/10/29 08:47:25;;;;;;;1.93;1.37;;;;;;;;;;5013167;28;20188;-80
2023/10/29 08:49:51;;;;;;;2.53;1.63;;;;;;;;;;5010188;28;20195;-80
2023/10/29 08:52:17;;;;;;;2.93;1.37;;;;;;;;;;5027178;28;20219;-80
2023/10/29 08:54:44;;;;;;;2.00;1.27;;;;;;;;;;5027789;28;20270;-80
2023/10/29 08:57:10;;;;;;;3.03;1.30;;;;;;;;;;5011357;28;20188;-80
2023/10/29 08:59:37;;;;;;;4.20;1.37;;;;;;;;;;5027174;28;20318;-80
2023/10/29 09:02:03;;;;;;;2.00;1.47;;;;;;;;;;5011374;28;20198;-80
2023/10/29 09:04:29;;;;;;;1.80;1.30;;;;;;;;;;5012491;28;20203;-80
2023/10/29 09:06:55;;;;;;;4.93;1.70;;;;;;;;;;5028747;28;20589;-79
2023/10/29 09:09:21;;;;;;;2.53;1.73;;;;;;;;;;5027557;28;20186;-80
2023/10/29 09:11:53;;;;;;;2.30;1.53;;;;;;;;;;5028998;28;20230;-80
2023/10/29 09:14:19;;;;;;;1.30;1.20;;;;;;;;;;5027702;28;20179;-80
2023/10/29 09:16:47;;;;;;;1.83;1.30;;;;;;;;;;5009865;28;20191;-80
2023/10/29 09:19:14;;;;;;;2.20;1.40;;;;;;;;;;5027215;28;20289;-78
2023/10/29 09:21:41;;;;;;;2.30;1.23;;;;;;;;;;5029473;28;20198;-81
2023/10/29 09:24:07;;;;;;;1.93;1.20;;;;;;;;;;5026965;28;20187;-77
2023/10/29 09:26:34;;;;;;;1.37;1.20;;;;;;;;;;5028500;28;20186;-77
2023/10/29 09:29:00;;;;;;;3.10;1.30;;;;;;;;;;5026330;28;20187;-77
2023/10/29 09:31:27;;;;;;;1.83;1.27;;;;;;;;;;5010918;28;20216;-80
2023/10/29 09:33:53;;;;;;;2.57;1.17;;;;;;;;;;5026622;28;20198;-79
2023/10/29 09:36:19;;;;;;;1.77;1.20;;;;;;;;;;5023341;28;20194;-78
2023/10/29 09:38:45;;;;;;;2.47;1.43;;;;;;;;;;5025299;28;20190;-79
2023/10/29 09:41:12;;;;;;;2.33;1.50;;;;;;;;;;5025347;28;20210;-79
2023/10/29 09:43:42;;;;;;;1.40;1.10;;;;;;;;;;5026369;28;20186;-79
2023/10/29 09:46:09;;;;;;;1.37;1.13;;;;;;;;;;5023956;28;20592;-78
2023/10/29 09:48:37;;;;;;;1.67;1.30;;;;;;;;;;5025756;28;20261;-78
2023/10/29 09:51:04;;;;;;;2.13;1.50;;;;;;;;;;5028482;28;20225;-78
2023/10/29 09:53:32;;;;;;;2.80;1.40;;;;;;;;;;5021862;28;20180;-78
2023/10/29 09:55:58;;;;;;;2.10;1.30;;;;;;;;;;5017559;28;20185;-77
2023/10/29 09:58:26;;;;;;;4.13;1.53;;;;;;;;;;5029942;28;20725;-78
2023/10/29 10:00:53;;;;;;;2.33;1.40;;;;;;;;;;5031121;28;20206;-78
2023/10/29 10:03:19;;;;;;;2.80;1.43;;;;;;;;;;5030345;28;20190;-78
2023/10/29 10:05:48;;;;;;;2.30;1.40;;;;;;;;;;5025127;28;20183;-78
2023/10/29 10:08:14;;;;;;;2.97;1.43;;;;;;;;;;5022274;28;20186;-78
2023/10/29 10:10:42;;;;;;;1.97;1.60;;;;;;;;;;5023646;28;20199;-78
2023/10/29 10:13:08;;;;;;;2.47;1.50;;;;;;;;;;5028015;28;20182;-78
2023/10/29 10:15:35;;;;;;;2.90;1.50;;;;;;;;;;5027004;28;20193;-78
2023/10/29 10:18:04;;;;;;;4.07;1.50;;;;;;;;;;5029602;28;20543;-78
2023/10/29 10:20:31;;;;;;;2.80;1.33;;;;;;;;;;5027385;28;20218;-78
2023/10/29 10:22:58;;;;;;;2.10;1.40;;;;;;;;;;5027276;28;20222;-78
2023/10/29 10:25:24;;;;;;;2.67;1.50;;;;;;;;;;5022740;28;20195;-78
2023/10/29 10:27:51;;;;;;;2.23;1.60;;;;;;;;;;5029367;28;20281;-78
2023/10/29 10:30:39;;;;;;;4.17;1.63;;;;;;;;;;5011057;28;20194;-78
2023/10/29 10:33:18;;;;;;;1.70;1.37;;;;;;;;;;5023387;28;20190;-78
2023/10/29 10:35:45;;;;;;;3.50;1.80;;;;;;;;;;5021783;28;20190;-78
2023/10/29 10:38:12;;;;;;;2.57;2.23;;;;;;;;;;5021875;28;20294;-78
2023/10/29 10:40:38;;;;;;;2.97;1.87;;;;;;;;;;5024185;28;20245;-78
2023/10/29 10:43:05;;;;;;;2.80;1.53;;;;;;;;;;5032312;28;20217;-78
2023/10/29 10:45:32;;;;;;;1.80;1.50;;;;;;;;;;5007975;28;20179;-78
2023/10/29 10:48:00;;;;;;;2.50;1.70;;;;;;;;;;5018205;28;20191;-78
2023/10/29 10:50:27;;;;;;;3.93;1.60;;;;;;;;;;5023574;28;20411;-78
2023/10/29 10:52:54;;;;;;;1.87;1.60;;;;;;;;;;5016306;28;20231;-78
2023/10/29 10:55:22;;;;;;;1.87;1.20;;;;;;;;;;5020220;28;20217;-78
2023/10/29 10:57:52;;;;;;;2.00;1.43;;;;;;;;;;5023446;28;20182;-78
2023/10/29 11:00:19;;;;;;;2.07;1.50;;;;;;;;;;5023564;28;20348;-78
2023/10/29 11:02:46;;;;;;;4.90;1.60;;;;;;;;;;5007100;28;20380;-78
2023/10/29 11:05:16;;;;;;;1.90;1.50;;;;;;;;;;5023284;28;20317;-78
2023/10/29 11:07:46;;;;;;;3.17;1.40;;;;;;;;;;5024012;28;20198;-78
2023/10/29 11:10:13;;;;;;;2.73;1.57;;;;;;;;;;5010949;28;20195;-79
2023/10/29 11:12:41;;;;;;;4.50;2.90;;;;;;;;;;5024428;28;20218;-78
2023/10/29 11:15:19;;;;;;;3.43;2.70;;;;;;;;;;5025994;28;20198;-78
2023/10/29 11:18:01;;;;;;;2.77;1.90;;;;;;;;;;5025698;28;20183;-78
2023/10/29 11:20:37;;;;;;;4.23;2.80;;;;;;;;;;5024275;28;20367;-78
2023/10/29 11:23:14;;;;;;;3.20;2.90;;;;;;;;;;5002257;28;20213;-78
2023/10/29 11:25:41;;;;;;;5.33;4.23;;;;;;;;;;5027543;28;20199;-78
2023/10/29 11:28:27;;;;;;;4.57;3.73;;;;;;;;;;5007506;28;20229;-78
2023/10/29 11:31:15;;;;;;;3.43;2.30;;;;;;;;;;5040627;28;20479;-78
2023/10/29 11:33:45;;;;;;;3.20;2.80;;;;;;;;;;5026819;28;20281;-78
2023/10/29 11:36:34;;;;;;;3.23;2.43;;;;;;;;;;5026507;28;20186;-78
2023/10/29 11:39:17;;;;;;;3.13;2.60;;;;;;;;;;5015486;28;20296;-78
2023/10/29 11:41:47;;;;;;;5.17;4.67;;;;;;;;;;5027589;28;20217;-80
2023/10/29 11:44:20;;;;;;;2.77;2.47;;;;;;;;;;5024995;28;20185;-79
2023/10/29 11:46:56;;;;;;;3.40;2.30;;;;;;;;;;5026780;28;20183;-77
2023/10/29 11:49:25;;;;;;;2.10;1.90;;;;;;;;;;5019000;28;20283;-76
2023/10/29 11:51:54;;;;;;;3.63;1.90;;;;;;;;;;5026059;28;20232;-75
2023/10/29 11:54:21;;;;;;;2.50;1.77;;;;;;;;;;5034037;28;20197;-74
2023/10/29 11:56:52;;;;;;;2.67;2.27;;;;;;;;;;5032195;28;20281;-75
2023/10/29 11:59:19;;;;;;;2.97;1.70;;;;;;;;;;5028463;28;20217;-74
2023/10/29 12:01:45;;;;;;;3.30;1.80;;;;;;;;;;5030335;28;20514;-75
2023/10/29 12:04:14;;;;;;;4.70;3.90;;;;;;;;;;5028323;28;20209;-76
2023/10/29 12:06:45;;;;;;;5.00;3.73;;;;;;;;;;5027465;28;20199;-76
2023/10/29 12:09:25;;;;;;;5.03;4.50;;;;;;;;;;5029277;28;20273;-74
2023/10/29 12:11:52;;;;;;;5.87;5.33;;;;;;;;;;5027385;28;20210;-74
2023/10/29 12:14:39;;;;;;;4.10;3.70;;;;;;;;;;5028642;28;20187;-78
2023/10/29 12:17:12;;;;;;;3.43;2.60;;;;;;;;;;5028647;28;20190;-77
2023/10/29 12:19:45;;;;;;;5.03;2.70;;;;;;;;;;5031384;28;20213;-76
2023/10/29 12:22:21;;;;;;;2.73;2.20;;;;;;;;;;5030367;28;20198;-76
2023/10/29 12:24:59;;;;;;;3.73;2.20;;;;;;;;;;5026393;28;20846;-76
2023/10/29 12:27:27;;;;;;;6.30;2.10;;;;;;;;;;5020877;28;20188;-76
2023/10/29 12:29:54;;;;;;;2.70;1.80;;;;;;;;;;5028709;28;20206;-76
2023/10/29 12:32:27;;;;;;;2.80;1.97;;;;;;;;;;5023332;28;20644;-76
2023/10/29 12:34:55;;;;;;;2.00;1.80;;;;;;;;;;5027816;28;20551;-76
2023/10/29 12:37:28;;;;;;;2.23;1.40;;;;;;;;;;5036364;28;20210;-77
2023/10/29 12:39:56;;;;;;;2.10;1.90;;;;;;;;;;5027657;28;20701;-78
2023/10/29 12:42:42;;;;;;;3.47;1.80;;;;;;;;;;5025603;28;20206;-78
2023/10/29 12:45:09;;;;;;;2.20;1.80;;;;;;;;;;5022987;28;20202;-78
2023/10/29 12:47:36;;;;;;;2.27;1.80;;;;;;;;;;5011400;28;20269;-78
2023/10/29 12:50:03;;;;;;;2.17;1.80;;;;;;;;;;5027545;28;20210;-78
2023/10/29 12:52:30;;;;;;;18.00;12.17;;;;;;;;;;5028479;28;20230;-77
2023/10/29 12:54:58;;;;;;;17.97;13.87;;;;;;;;;;5029795;28;20234;-78
2023/10/29 12:57:24;;;;;;;13.23;9.90;;;;;;;;;;5028952;28;20560;-78
2023/10/29 12:59:51;;;;;;;12.00;9.77;;;;;;;;;;5015117;28;20294;-78
2023/10/29 13:02:26;;;;;;;17.80;15.87;;;;;;;;;;5030238;28;20260;-77
2023/10/29 13:04:55;;;;;;;31.97;28.57;;;;;;;;;;5031064;28;20187;-77
2023/10/29 13:07:22;;;;;;;20.17;18.07;;;;;;;;;;5029665;28;20192;-78
2023/10/29 13:09:51;;;;;;;11.70;10.60;;;;;;;;;;5030226;28;20189;-77
2023/10/29 13:12:17;;;;;;;7.50;6.73;;;;;;;;;;5034821;28;20607;-77
2023/10/29 13:14:46;;;;;;;8.50;7.70;;;;;;;;;;5028837;28;20672;-77
2023/10/29 13:17:16;;;;;;;10.00;9.20;;;;;;;;;;5030831;28;20178;-76
2023/10/29 13:19:43;;;;;;;6.97;6.27;;;;;;;;;;5025659;28;20220;-77
2023/10/29 13:22:10;;;;;;;6.10;5.50;;;;;;;;;;5028158;28;20214;-76
2023/10/29 13:24:37;;;;;;;15.00;12.63;;;;;;;;;;5026637;28;20192;-76
2023/10/29 13:27:05;;;;;;;10.37;8.87;;;;;;;;;;5029327;28;20178;-76
2023/10/29 13:29:33;;;;;;;5.70;5.00;;;;;;;;;;5027277;28;20187;-76
2023/10/29 13:32:00;;;;;;;5.23;4.10;;;;;;;;;;5028295;28;20214;-76
2023/10/29 13:34:27;;;;;;;4.27;3.00;;;;;;;;;;5028997;28;20279;-76
2023/10/29 13:36:54;;;;;;;4.00;2.40;;;;;;;;;;5028026;28;20194;-77
2023/10/29 13:39:21;;;;;;;2.20;2.00;;;;;;;;;;5027581;28;20268;-76
2023/10/29 13:41:48;;;;;;;2.27;1.83;;;;;;;;;;5026418;28;20203;-76
2023/10/29 13:44:16;;;;;;;3.53;2.70;;;;;;;;;;5027540;28;20175;-76
2023/10/29 13:46:48;;;;;;;3.43;2.57;;;;;;;;;;5026921;28;20178;-76
2023/10/29 13:49:15;;;;;;;3.13;2.63;;;;;;;;;;5009989;28;20218;-76
2023/10/29 13:51:44;;;;;;;4.53;2.57;;;;;;;;;;5021620;28;20562;-76
2023/10/29 13:54:11;;;;;;;2.80;2.40;;;;;;;;;;5027255;28;20197;-76
2023/10/29 13:56:37;;;;;;;2.50;2.17;;;;;;;;;;5027816;28;20316;-76
2023/10/29 13:59:04;;;;;;;2.73;2.30;;;;;;;;;;5027836;28;20253;-79
2023/10/29 14:01:31;;;;;;;2.90;2.30;;;;;;;;;;5011297;28;20685;-77
2023/10/29 14:03:58;;;;;;;3.20;2.50;;;;;;;;;;5026857;28;20187;-76
2023/10/29 14:06:26;;;;;;;3.43;2.70;;;;;;;;;;5026659;28;20170;-77
2023/10/29 14:08:53;;;;;;;2.63;2.10;;;;;;;;;;5027094;28;20187;-77
2023/10/29 14:11:20;;;;;;;3.60;2.20;;;;;;;;;;5027024;28;20202;-77
2023/10/29 14:13:53;;;;;;;2.33;1.70;;;;;;;;;;5026032;28;20190;-77
2023/10/29 14:16:20;;;;;;;1.70;1.43;;;;;;;;;;5024971;28;20674;-77
2023/10/29 14:18:46;;;;;;;1.43;1.33;;;;;;;;;;5025817;28;20194;-77
2023/10/29 14:21:12;;;;;;;2.30;1.33;;;;;;;;;;5028002;28;20220;-77
2023/10/29 14:23:38;;;;;;;2.10;1.40;;;;;;;;;;5029542;28;20191;-76
2023/10/29 14:26:04;;;;;;;2.73;1.57;;;;;;;;;;5029935;28;20186;-77
2023/10/29 14:28:31;;;;;;;1.80;1.50;;;;;;;;;;5028388;28;20179;-77
2023/10/29 14:30:57;;;;;;;1.67;1.20;;;;;;;;;;5028812;28;20266;-76
2023/10/29 14:33:23;;;;;;;2.40;1.30;;;;;;;;;;5026797;28;20191;-76
2023/10/29 14:35:59;;;;;;;1.77;1.30;;;;;;;;;;5027379;28;20270;-76
2023/10/29 14:38:27;;;;;;;3.53;1.50;;;;;;;;;;5027143;28;20685;-76
2023/10/29 14:40:53;;;;;;;2.53;1.50;;;;;;;;;;5028112;28;20206;-76
2023/10/29 14:43:24;;;;;;;1.63;1.33;;;;;;;;;;5009097;28;20178;-77
2023/10/29 14:45:51;;;;;;;1.83;1.60;;;;;;;;;;5026613;28;20174;-76